sensor_id;sensor_type;location;lat;lon;timestamp;temperature;humidity
43808;DHT22;29438;50.664;10.098;2023-05-14T00:02:15;7.70;89.90
43808;DHT22;29438;50.664;10.098;2023-05-14T00:04:41;7.70;90.20
43808;DHT22;29438;50.664;10.098;2023-05-14T00:07:06;7.70;90.20
43808;DHT22;29438;50.664;10.098;2023-05-14T00:09:32;7.60;90.20
43808;DHT22;29438;50.664;10.098;2023-05-14T00:11:57;7.50;90.20
43808;DHT22;29438;50.664;10.098;2023-05-14T00:14:23;7.50;90.30
43808;DHT22;29438;50.664;10.098;2023-05-14T00:16:49;7.50;90.40
43808;DHT22;29438;50.664;10.098;2023-05-14T00:19:14;7.40;90.40
43808;DHT22;29438;50.664;10.098;2023-05-14T00:21:40;7.30;90.30
43808;DHT22;29438;50.664;10.098;2023-05-14T00:24:05;7.30;90.30
43808;DHT22;29438;50.664;10.098;2023-05-14T00:26:31;7.30;90.40
43808;DHT22;29438;50.664;10.098;2023-05-14T00:28:56;7.30;90.60
43808;DHT22;29438;50.664;10.098;2023-05-14T00:31:22;7.30;90.60
43808;DHT22;29438;50.664;10.098;2023-05-14T00:33:47;7.30;90.50
43808;DHT22;29438;50.664;10.098;2023-05-14T00:36:13;7.30;90.60
43808;DHT22;29438;50.664;10.098;2023-05-14T00:38:38;7.30;90.60
43808;DHT22;29438;50.664;10.098;2023-05-14T00:41:04;7.20;90.60
43808;DHT22;29438;50.664;10.098;2023-05-14T00:43:29;7.10;90.50
43808;DHT22;29438;50.664;10.098;2023-05-14T00:45:57;7.20;90.60
43808;DHT22;29438;50.664;10.098;2023-05-14T00:48:23;7.10;90.60
43808;DHT22;29438;50.664;10.098;2023-05-14T00:50:50;7.20;90.70
43808;DHT22;29438;50.664;10.098;2023-05-14T00:53:17;7.20;90.70
43808;DHT22;29438;50.664;10.098;2023-05-14T00:55:44;7.20;90.80
43808;DHT22;29438;50.664;10.098;2023-05-14T00:58:12;7.20;90.80
43808;DHT22;29438;50.664;10.098;2023-05-14T01:00:39;7.20;90.80
43808;DHT22;29438;50.664;10.098;2023-05-14T01:03:06;7.30;90.90
43808;DHT22;29438;50.664;10.098;2023-05-14T01:11:28;7.30;90.80
43808;DHT22;29438;50.664;10.098;2023-05-14T01:14:16;7.20;90.60
43808;DHT22;29438;50.664;10.098;2023-05-14T01:16:44;7.20;90.60
43808;DHT22;29438;50.664;10.098;2023-05-14T01:19:21;7.20;90.60
43808;DHT22;29438;50.664;10.098;2023-05-14T01:21:50;7.20;90.70
43808;DHT22;29438;50.664;10.098;2023-05-14T01:24:16;7.20;90.70
43808;DHT22;29438;50.664;10.098;2023-05-14T01:26:41;7.10;90.70
43808;DHT22;29438;50.664;10.098;2023-05-14T01:29:15;7.20;90.70
43808;DHT22;29438;50.664;10.098;2023-05-14T01:31:44;7.20;90.80
43808;DHT22;29438;50.664;10.098;2023-05-14T01:34:11;7.10;90.80
43808;DHT22;29438;50.664;10.098;2023-05-14T01:36:39;7.10;90.70
43808;DHT22;29438;50.664;10.098;2023-05-14T01:39:05;7.10;90.80
43808;DHT22;29438;50.664;10.098;2023-05-14T01:41:35;7.10;90.90
43808;DHT22;29438;50.664;10.098;2023-05-14T01:44:01;7.00;90.90
43808;DHT22;29438;50.664;10.098;2023-05-14T01:46:31;6.90;90.90
43808;DHT22;29438;50.664;10.098;2023-05-14T01:48:59;6.90;91.00
43808;DHT22;29438;50.664;10.098;2023-05-14T01:51:25;7.00;91.10
43808;DHT22;29438;50.664;10.098;2023-05-14T01:53:50;7.10;91.20
43808;DHT22;29438;50.664;10.098;2023-05-14T01:56:19;7.10;91.20
43808;DHT22;29438;50.664;10.098;2023-05-14T01:58:48;7.10;91.20
43808;DHT22;29438;50.664;10.098;2023-05-14T02:01:14;7.00;91.20
43808;DHT22;29438;50.664;10.098;2023-05-14T02:03:39;7.00;91.20
43808;DHT22;29438;50.664;10.098;2023-05-14T02:06:05;7.00;91.30
43808;DHT22;29438;50.664;10.098;2023-05-14T02:08:30;7.00;91.30
43808;DHT22;29438;50.664;10.098;2023-05-14T02:10:56;6.90;91.30
43808;DHT22;29438;50.664;10.098;2023-05-14T02:13:21;6.90;91.40
43808;DHT22;29438;50.664;10.098;2023-05-14T02:15:48;7.00;91.50
43808;DHT22;29438;50.664;10.098;2023-05-14T02:18:14;7.00;91.50
43808;DHT22;29438;50.664;10.098;2023-05-14T02:20:39;6.90;91.60
43808;DHT22;29438;50.664;10.098;2023-05-14T02:23:05;6.80;91.60
43808;DHT22;29438;50.664;10.098;2023-05-14T02:25:30;6.70;91.60
43808;DHT22;29438;50.664;10.098;2023-05-14T02:27:56;6.60;91.60
43808;DHT22;29438;50.664;10.098;2023-05-14T02:30:21;6.60;91.70
43808;DHT22;29438;50.664;10.098;2023-05-14T02:32:47;6.50;91.90
43808;DHT22;29438;50.664;10.098;2023-05-14T02:35:12;6.60;92.00
43808;DHT22;29438;50.664;10.098;2023-05-14T02:37:38;6.70;92.00
43808;DHT22;29438;50.664;10.098;2023-05-14T02:40:04;6.70;92.10
43808;DHT22;29438;50.664;10.098;2023-05-14T02:42:30;6.60;92.20
43808;DHT22;29438;50.664;10.098;2023-05-14T02:44:55;6.70;92.20
43808;DHT22;29438;50.664;10.098;2023-05-14T02:47:21;6.70;92.30
43808;DHT22;29438;50.664;10.098;2023-05-14T02:49:46;6.70;92.30
43808;DHT22;29438;50.664;10.098;2023-05-14T02:52:12;6.70;92.40
43808;DHT22;29438;50.664;10.098;2023-05-14T02:54:37;6.70;92.40
43808;DHT22;29438;50.664;10.098;2023-05-14T02:57:03;6.70;92.50
43808;DHT22;29438;50.664;10.098;2023-05-14T02:59:28;6.70;92.50
43808;DHT22;29438;50.664;10.098;2023-05-14T03:01:54;6.60;92.50
43808;DHT22;29438;50.664;10.098;2023-05-14T03:04:20;6.50;92.50
43808;DHT22;29438;50.664;10.098;2023-05-14T03:06:45;6.40;92.50
43808;DHT22;29438;50.664;10.098;2023-05-14T03:09:11;6.30;92.50
43808;DHT22;29438;50.664;10.098;2023-05-14T03:11:36;6.40;92.60
43808;DHT22;29438;50.664;10.098;2023-05-14T03:14:02;6.40;92.60
43808;DHT22;29438;50.664;10.098;2023-05-14T03:16:27;6.30;92.60
43808;DHT22;29438;50.664;10.098;2023-05-14T03:18:53;6.30;92.70
43808;DHT22;29438;50.664;10.098;2023-05-14T03:21:18;6.30;92.70
43808;DHT22;29438;50.664;10.098;2023-05-14T03:23:44;6.30;92.70
43808;DHT22;29438;50.664;10.098;2023-05-14T03:26:10;6.30;92.80
43808;DHT22;29438;50.664;10.098;2023-05-14T03:28:35;6.30;92.80
43808;DHT22;29438;50.664;10.098;2023-05-14T03:31:01;6.30;92.80
43808;DHT22;29438;50.664;10.098;2023-05-14T03:33:26;6.30;92.90
43808;DHT22;29438;50.664;10.098;2023-05-14T03:35:52;6.30;92.90
43808;DHT22;29438;50.664;10.098;2023-05-14T03:38:17;6.30;92.90
43808;DHT22;29438;50.664;10.098;2023-05-14T03:40:43;6.20;92.90
43808;DHT22;29438;50.664;10.098;2023-05-14T03:43:09;6.20;93.00
43808;DHT22;29438;50.664;10.098;2023-05-14T03:45:36;6.20;93.00
43808;DHT22;29438;50.664;10.098;2023-05-14T03:48:01;6.20;93.00
43808;DHT22;29438;50.664;10.098;2023-05-14T03:50:27;6.30;93.00
43808;DHT22;29438;50.664;10.098;2023-05-14T03:52:53;6.30;93.00
43808;DHT22;29438;50.664;10.098;2023-05-14T03:55:25;6.30;93.00
43808;DHT22;29438;50.664;10.098;2023-05-14T03:58:01;6.30;93.00
43808;DHT22;29438;50.664;10.098;2023-05-14T04:00:27;6.30;93.00
43808;DHT22;29438;50.664;10.098;2023-05-14T04:02:53;6.60;93.30
43808;DHT22;29438;50.664;10.098;2023-05-14T04:05:19;7.00;93.50
43808;DHT22;29438;50.664;10.098;2023-05-14T04:07:44;7.90;94.10
43808;DHT22;29438;50.664;10.098;2023-05-14T04:10:11;9.20;92.90
43808;DHT22;29438;50.664;10.098;2023-05-14T04:12:36;10.60;88.20
43808;DHT22;29438;50.664;10.098;2023-05-14T04:15:03;12.20;82.30
43808;DHT22;29438;50.664;10.098;2023-05-14T04:17:29;13.90;74.00
43808;DHT22;29438;50.664;10.098;2023-05-14T04:19:54;15.10;68.00
43808;DHT22;29438;50.664;10.098;2023-05-14T04:22:20;16.20;63.40
43808;DHT22;29438;50.664;10.098;2023-05-14T04:24:45;16.70;60.90
43808;DHT22;29438;50.664;10.098;2023-05-14T04:27:13;16.70;58.50
43808;DHT22;29438;50.664;10.098;2023-05-14T04:29:43;15.70;60.10
43808;DHT22;29438;50.664;10.098;2023-05-14T04:32:09;15.10;61.80
43808;DHT22;29438;50.664;10.098;2023-05-14T04:34:34;13.60;65.00
43808;DHT22;29438;50.664;10.098;2023-05-14T04:37:00;12.10;69.60
43808;DHT22;29438;50.664;10.098;2023-05-14T04:39:28;11.30;73.20
43808;DHT22;29438;50.664;10.098;2023-05-14T04:41:53;11.20;74.20
43808;DHT22;29438;50.664;10.098;2023-05-14T04:44:18;11.00;75.00
43808;DHT22;29438;50.664;10.098;2023-05-14T04:46:44;12.00;75.50
43808;DHT22;29438;50.664;10.098;2023-05-14T04:49:09;12.30;72.10
43808;DHT22;29438;50.664;10.098;2023-05-14T04:51:35;11.90;73.10
43808;DHT22;29438;50.664;10.098;2023-05-14T04:54:01;12.50;74.30
43808;DHT22;29438;50.664;10.098;2023-05-14T04:56:26;13.50;70.90
43808;DHT22;29438;50.664;10.098;2023-05-14T04:58:52;15.10;67.60
43808;DHT22;29438;50.664;10.098;2023-05-14T05:01:17;17.00;60.20
43808;DHT22;29438;50.664;10.098;2023-05-14T05:03:43;19.20;55.30
43808;DHT22;29438;50.664;10.098;2023-05-14T05:06:08;21.70;48.30
43808;DHT22;29438;50.664;10.098;2023-05-14T05:08:35;24.50;42.20
43808;DHT22;29438;50.664;10.098;2023-05-14T05:11:00;26.00;38.40
43808;DHT22;29438;50.664;10.098;2023-05-14T05:13:26;26.00;38.50
43808;DHT22;29438;50.664;10.098;2023-05-14T05:15:51;26.30;37.00
43808;DHT22;29438;50.664;10.098;2023-05-14T05:18:17;26.80;35.60
43808;DHT22;29438;50.664;10.098;2023-05-14T05:20:42;26.20;36.90
43808;DHT22;29438;50.664;10.098;2023-05-14T05:23:08;26.20;37.20
43808;DHT22;29438;50.664;10.098;2023-05-14T05:25:33;27.30;35.70
43808;DHT22;29438;50.664;10.098;2023-05-14T05:27:59;27.90;34.40
43808;DHT22;29438;50.664;10.098;2023-05-14T05:30:24;29.30;32.50
43808;DHT22;29438;50.664;10.098;2023-05-14T05:32:50;29.10;32.40
43808;DHT22;29438;50.664;10.098;2023-05-14T05:35:15;28.80;32.00
43808;DHT22;29438;50.664;10.098;2023-05-14T05:37:41;29.30;30.70
43808;DHT22;29438;50.664;10.098;2023-05-14T05:40:07;29.50;31.10
43808;DHT22;29438;50.664;10.098;2023-05-14T05:42:34;29.40;30.80
43808;DHT22;29438;50.664;10.098;2023-05-14T05:44:59;29.10;31.00
43808;DHT22;29438;50.664;10.098;2023-05-14T05:47:25;29.70;31.10
43808;DHT22;29438;50.664;10.098;2023-05-14T05:49:50;30.40;29.70
43808;DHT22;29438;50.664;10.098;2023-05-14T05:52:16;30.00;30.30
43808;DHT22;29438;50.664;10.098;2023-05-14T05:54:41;29.90;30.80
43808;DHT22;29438;50.664;10.098;2023-05-14T05:57:07;29.80;30.80
43808;DHT22;29438;50.664;10.098;2023-05-14T05:59:33;29.90;30.30
43808;DHT22;29438;50.664;10.098;2023-05-14T06:01:58;27.20;33.70
43808;DHT22;29438;50.664;10.098;2023-05-14T06:04:24;25.50;37.00
43808;DHT22;29438;50.664;10.098;2023-05-14T06:06:49;26.00;36.50
43808;DHT22;29438;50.664;10.098;2023-05-14T06:09:15;27.60;35.10
43808;DHT22;29438;50.664;10.098;2023-05-14T06:11:40;29.30;32.20
43808;DHT22;29438;50.664;10.098;2023-05-14T06:14:06;28.20;33.70
43808;DHT22;29438;50.664;10.098;2023-05-14T06:16:31;27.10;35.20
43808;DHT22;29438;50.664;10.098;2023-05-14T06:18:57;27.50;34.50
43808;DHT22;29438;50.664;10.098;2023-05-14T06:21:23;26.60;35.30
43808;DHT22;29438;50.664;10.098;2023-05-14T06:23:49;27.60;34.30
43808;DHT22;29438;50.664;10.098;2023-05-14T06:26:14;26.90;34.90
43808;DHT22;29438;50.664;10.098;2023-05-14T06:28:40;27.10;35.70
43808;DHT22;29438;50.664;10.098;2023-05-14T06:31:05;28.50;33.40
43808;DHT22;29438;50.664;10.098;2023-05-14T06:33:31;27.10;34.90
43808;DHT22;29438;50.664;10.098;2023-05-14T06:36:02;24.70;40.00
43808;DHT22;29438;50.664;10.098;2023-05-14T06:38:28;24.60;40.60
43808;DHT22;29438;50.664;10.098;2023-05-14T06:40:54;25.10;38.90
43808;DHT22;29438;50.664;10.098;2023-05-14T06:43:19;24.30;39.90
43808;DHT22;29438;50.664;10.098;2023-05-14T06:45:48;23.60;41.70
43808;DHT22;29438;50.664;10.098;2023-05-14T06:48:14;24.90;39.40
43808;DHT22;29438;50.664;10.098;2023-05-14T06:50:40;26.30;35.40
43808;DHT22;29438;50.664;10.098;2023-05-14T06:53:05;25.70;36.20
43808;DHT22;29438;50.664;10.098;2023-05-14T06:55:31;25.40;37.50
43808;DHT22;29438;50.664;10.098;2023-05-14T06:57:56;24.80;37.40
43808;DHT22;29438;50.664;10.098;2023-05-14T07:00:22;25.60;37.80
43808;DHT22;29438;50.664;10.098;2023-05-14T07:02:47;26.20;35.40
43808;DHT22;29438;50.664;10.098;2023-05-14T07:05:13;25.60;36.20
43808;DHT22;29438;50.664;10.098;2023-05-14T07:07:39;24.90;37.90
43808;DHT22;29438;50.664;10.098;2023-05-14T07:10:05;24.00;38.00
43808;DHT22;29438;50.664;10.098;2023-05-14T07:12:31;25.20;36.70
43808;DHT22;29438;50.664;10.098;2023-05-14T07:14:56;26.60;37.40
43808;DHT22;29438;50.664;10.098;2023-05-14T07:17:22;26.50;35.30
43808;DHT22;29438;50.664;10.098;2023-05-14T07:19:48;24.40;38.00
43808;DHT22;29438;50.664;10.098;2023-05-14T07:22:13;22.80;41.60
43808;DHT22;29438;50.664;10.098;2023-05-14T07:24:39;21.10;45.00
43808;DHT22;29438;50.664;10.098;2023-05-14T07:27:05;21.70;44.80
43808;DHT22;29438;50.664;10.098;2023-05-14T07:29:30;22.30;43.80
43808;DHT22;29438;50.664;10.098;2023-05-14T07:31:59;25.00;38.90
43808;DHT22;29438;50.664;10.098;2023-05-14T07:34:25;26.50;36.00
43808;DHT22;29438;50.664;10.098;2023-05-14T07:36:50;26.80;35.60
43808;DHT22;29438;50.664;10.098;2023-05-14T07:39:16;27.20;35.50
43808;DHT22;29438;50.664;10.098;2023-05-14T07:41:42;26.10;36.50
43808;DHT22;29438;50.664;10.098;2023-05-14T07:44:07;22.80;42.60
43808;DHT22;29438;50.664;10.098;2023-05-14T07:46:33;23.10;44.40
43808;DHT22;29438;50.664;10.098;2023-05-14T07:48:58;24.80;40.20
43808;DHT22;29438;50.664;10.098;2023-05-14T07:51:24;23.80;42.20
43808;DHT22;29438;50.664;10.098;2023-05-14T07:53:52;24.20;40.70
43808;DHT22;29438;50.664;10.098;2023-05-14T07:56:18;21.90;44.40
43808;DHT22;29438;50.664;10.098;2023-05-14T07:58:44;21.20;46.50
43808;DHT22;29438;50.664;10.098;2023-05-14T08:01:09;21.00;46.00
43808;DHT22;29438;50.664;10.098;2023-05-14T08:03:37;19.30;49.50
43808;DHT22;29438;50.664;10.098;2023-05-14T08:06:02;18.20;52.70
43808;DHT22;29438;50.664;10.098;2023-05-14T08:08:28;17.70;54.60
43808;DHT22;29438;50.664;10.098;2023-05-14T08:10:54;19.30;50.40
43808;DHT22;29438;50.664;10.098;2023-05-14T08:13:20;19.60;51.20
43808;DHT22;29438;50.664;10.098;2023-05-14T08:15:45;18.90;51.70
43808;DHT22;29438;50.664;10.098;2023-05-14T08:18:11;19.20;52.00
43808;DHT22;29438;50.664;10.098;2023-05-14T08:20:37;19.10;50.60
43808;DHT22;29438;50.664;10.098;2023-05-14T08:23:02;19.40;49.30
43808;DHT22;29438;50.664;10.098;2023-05-14T08:25:28;18.90;51.00
43808;DHT22;29438;50.664;10.098;2023-05-14T08:27:53;19.30;50.80
43808;DHT22;29438;50.664;10.098;2023-05-14T08:30:19;18.90;52.50
43808;DHT22;29438;50.664;10.098;2023-05-14T08:32:45;18.00;52.30
43808;DHT22;29438;50.664;10.098;2023-05-14T08:35:11;16.70;55.00
43808;DHT22;29438;50.664;10.098;2023-05-14T08:37:36;18.50;53.50
43808;DHT22;29438;50.664;10.098;2023-05-14T08:40:02;18.30;52.20
43808;DHT22;29438;50.664;10.098;2023-05-14T08:42:28;17.20;55.40
43808;DHT22;29438;50.664;10.098;2023-05-14T08:45:01;16.80;56.30
43808;DHT22;29438;50.664;10.098;2023-05-14T08:47:28;17.50;55.80
43808;DHT22;29438;50.664;10.098;2023-05-14T08:50:05;17.10;56.80
43808;DHT22;29438;50.664;10.098;2023-05-14T08:52:32;17.30;54.40
43808;DHT22;29438;50.664;10.098;2023-05-14T08:55:00;17.50;56.80
43808;DHT22;29438;50.664;10.098;2023-05-14T08:57:27;17.20;58.00
43808;DHT22;29438;50.664;10.098;2023-05-14T08:59:54;17.30;55.70
43808;DHT22;29438;50.664;10.098;2023-05-14T09:02:22;17.00;57.70
43808;DHT22;29438;50.664;10.098;2023-05-14T09:04:54;17.10;55.10
43808;DHT22;29438;50.664;10.098;2023-05-14T09:07:20;17.50;55.50
43808;DHT22;29438;50.664;10.098;2023-05-14T09:09:46;17.70;54.80
43808;DHT22;29438;50.664;10.098;2023-05-14T09:12:12;18.30;55.10
43808;DHT22;29438;50.664;10.098;2023-05-14T09:14:38;18.80;53.50
43808;DHT22;29438;50.664;10.098;2023-05-14T09:17:04;18.10;52.20
43808;DHT22;29438;50.664;10.098;2023-05-14T09:19:29;18.10;55.70
43808;DHT22;29438;50.664;10.098;2023-05-14T09:21:56;19.40;52.00
43808;DHT22;29438;50.664;10.098;2023-05-14T09:24:25;21.50;46.50
43808;DHT22;29438;50.664;10.098;2023-05-14T09:26:53;21.90;44.80
43808;DHT22;29438;50.664;10.098;2023-05-14T09:29:19;23.10;43.70
43808;DHT22;29438;50.664;10.098;2023-05-14T09:31:44;22.20;40.70
43808;DHT22;29438;50.664;10.098;2023-05-14T09:34:10;20.60;44.80
43808;DHT22;29438;50.664;10.098;2023-05-14T09:36:36;20.70;44.20
43808;DHT22;29438;50.664;10.098;2023-05-14T09:39:05;20.90;45.20
43808;DHT22;29438;50.664;10.098;2023-05-14T09:41:31;22.50;45.90
43808;DHT22;29438;50.664;10.098;2023-05-14T09:43:56;22.90;40.50
43808;DHT22;29438;50.664;10.098;2023-05-14T09:46:22;24.00;42.40
43808;DHT22;29438;50.664;10.098;2023-05-14T09:48:48;22.60;43.70
43808;DHT22;29438;50.664;10.098;2023-05-14T09:51:15;22.60;44.20
43808;DHT22;29438;50.664;10.098;2023-05-14T09:53:43;22.60;44.00
43808;DHT22;29438;50.664;10.098;2023-05-14T09:56:08;23.20;41.90
43808;DHT22;29438;50.664;10.098;2023-05-14T09:58:34;22.00;43.60
43808;DHT22;29438;50.664;10.098;2023-05-14T10:01:00;21.50;43.50
43808;DHT22;29438;50.664;10.098;2023-05-14T10:03:29;20.80;44.40
43808;DHT22;29438;50.664;10.098;2023-05-14T10:05:59;19.80;45.80
43808;DHT22;29438;50.664;10.098;2023-05-14T10:08:32;19.90;47.60
43808;DHT22;29438;50.664;10.098;2023-05-14T10:10:58;21.30;47.20
43808;DHT22;29438;50.664;10.098;2023-05-14T10:13:38;22.50;42.90
43808;DHT22;29438;50.664;10.098;2023-05-14T10:16:27;23.70;41.40
43808;DHT22;29438;50.664;10.098;2023-05-14T10:19:00;24.90;39.70
43808;DHT22;29438;50.664;10.098;2023-05-14T10:21:29;25.80;39.50
43808;DHT22;29438;50.664;10.098;2023-05-14T10:23:56;25.50;37.50
43808;DHT22;29438;50.664;10.098;2023-05-14T10:26:22;24.90;36.70
43808;DHT22;29438;50.664;10.098;2023-05-14T10:28:47;23.10;39.10
43808;DHT22;29438;50.664;10.098;2023-05-14T10:31:13;22.00;43.10
43808;DHT22;29438;50.664;10.098;2023-05-14T10:33:46;21.40;44.30
43808;DHT22;29438;50.664;10.098;2023-05-14T10:36:14;20.80;44.60
43808;DHT22;29438;50.664;10.098;2023-05-14T10:38:40;19.80;46.90
43808;DHT22;29438;50.664;10.098;2023-05-14T10:41:13;19.80;48.10
43808;DHT22;29438;50.664;10.098;2023-05-14T10:43:46;19.30;50.60
43808;DHT22;29438;50.664;10.098;2023-05-14T10:46:13;18.60;47.80
43808;DHT22;29438;50.664;10.098;2023-05-14T10:48:41;18.30;49.60
43808;DHT22;29438;50.664;10.098;2023-05-14T10:51:08;18.20;51.10
43808;DHT22;29438;50.664;10.098;2023-05-14T10:53:39;17.60;54.20
43808;DHT22;29438;50.664;10.098;2023-05-14T10:56:07;17.30;56.60
43808;DHT22;29438;50.664;10.098;2023-05-14T10:58:43;17.10;59.20
43808;DHT22;29438;50.664;10.098;2023-05-14T11:01:11;16.60;59.00
43808;DHT22;29438;50.664;10.098;2023-05-14T11:03:41;16.40;60.20
43808;DHT22;29438;50.664;10.098;2023-05-14T11:06:07;16.40;61.10
43808;DHT22;29438;50.664;10.098;2023-05-14T11:08:33;16.30;67.00
43808;DHT22;29438;50.664;10.098;2023-05-14T11:10:58;16.10;67.00
43808;DHT22;29438;50.664;10.098;2023-05-14T11:13:27;16.00;70.30
43808;DHT22;29438;50.664;10.098;2023-05-14T11:15:53;16.00;71.70
43808;DHT22;29438;50.664;10.098;2023-05-14T11:18:29;15.70;73.00
43808;DHT22;29438;50.664;10.098;2023-05-14T11:21:01;15.20;74.60
43808;DHT22;29438;50.664;10.098;2023-05-14T11:23:27;15.00;74.60
43808;DHT22;29438;50.664;10.098;2023-05-14T11:25:53;14.80;73.10
43808;DHT22;29438;50.664;10.098;2023-05-14T11:28:20;14.50;75.80
43808;DHT22;29438;50.664;10.098;2023-05-14T11:30:47;14.40;77.00
43808;DHT22;29438;50.664;10.098;2023-05-14T11:33:12;14.50;76.40
43808;DHT22;29438;50.664;10.098;2023-05-14T11:35:38;14.80;77.00
43808;DHT22;29438;50.664;10.098;2023-05-14T11:38:06;14.80;74.80
43808;DHT22;29438;50.664;10.098;2023-05-14T11:40:32;14.60;74.10
43808;DHT22;29438;50.664;10.098;2023-05-14T11:42:57;14.90;75.60
43808;DHT22;29438;50.664;10.098;2023-05-14T11:45:25;15.10;75.70
43808;DHT22;29438;50.664;10.098;2023-05-14T11:47:51;15.10;75.70
43808;DHT22;29438;50.664;10.098;2023-05-14T11:50:18;15.30;73.60
43808;DHT22;29438;50.664;10.098;2023-05-14T11:52:43;15.50;71.70
43808;DHT22;29438;50.664;10.098;2023-05-14T11:55:12;15.60;69.40
43808;DHT22;29438;50.664;10.098;2023-05-14T11:57:37;15.60;74.00
43808;DHT22;29438;50.664;10.098;2023-05-14T12:00:07;15.70;75.40
43808;DHT22;29438;50.664;10.098;2023-05-14T12:02:33;15.90;77.60
43808;DHT22;29438;50.664;10.098;2023-05-14T12:04:59;15.80;77.70
43808;DHT22;29438;50.664;10.098;2023-05-14T12:07:28;15.70;77.10
43808;DHT22;29438;50.664;10.098;2023-05-14T12:09:53;15.50;76.40
43808;DHT22;29438;50.664;10.098;2023-05-14T12:12:20;15.40;75.50
43808;DHT22;29438;50.664;10.098;2023-05-14T12:14:47;15.20;75.10
43808;DHT22;29438;50.664;10.098;2023-05-14T12:17:16;15.50;75.00
43808;DHT22;29438;50.664;10.098;2023-05-14T12:19:44;15.70;73.10
43808;DHT22;29438;50.664;10.098;2023-05-14T12:22:10;15.90;72.80
43808;DHT22;29438;50.664;10.098;2023-05-14T12:24:36;16.00;72.90
43808;DHT22;29438;50.664;10.098;2023-05-14T12:27:03;16.10;76.20
43808;DHT22;29438;50.664;10.098;2023-05-14T12:29:29;16.20;74.80
43808;DHT22;29438;50.664;10.098;2023-05-14T12:31:56;16.60;76.10
43808;DHT22;29438;50.664;10.098;2023-05-14T12:34:28;17.20;76.10
43808;DHT22;29438;50.664;10.098;2023-05-14T12:36:53;17.60;73.90
43808;DHT22;29438;50.664;10.098;2023-05-14T12:39:19;17.40;71.80
43808;DHT22;29438;50.664;10.098;2023-05-14T12:41:45;17.80;73.10
43808;DHT22;29438;50.664;10.098;2023-05-14T12:44:10;17.90;73.50
43808;DHT22;29438;50.664;10.098;2023-05-14T12:46:36;17.90;73.50
43808;DHT22;29438;50.664;10.098;2023-05-14T12:49:02;18.00;72.90
43808;DHT22;29438;50.664;10.098;2023-05-14T12:51:27;17.80;72.30
43808;DHT22;29438;50.664;10.098;2023-05-14T12:53:53;17.70;71.00
43808;DHT22;29438;50.664;10.098;2023-05-14T12:56:18;17.70;70.50
43808;DHT22;29438;50.664;10.098;2023-05-14T12:58:44;17.90;70.50
43808;DHT22;29438;50.664;10.098;2023-05-14T13:01:11;18.00;72.10
43808;DHT22;29438;50.664;10.098;2023-05-14T13:03:36;18.10;69.80
43808;DHT22;29438;50.664;10.098;2023-05-14T13:06:02;18.20;68.30
43808;DHT22;29438;50.664;10.098;2023-05-14T13:08:28;18.50;67.70
43808;DHT22;29438;50.664;10.098;2023-05-14T13:10:54;18.30;66.00
43808;DHT22;29438;50.664;10.098;2023-05-14T13:13:20;18.30;67.10
43808;DHT22;29438;50.664;10.098;2023-05-14T13:15:45;18.30;68.00
43808;DHT22;29438;50.664;10.098;2023-05-14T13:18:12;18.60;66.10
43808;DHT22;29438;50.664;10.098;2023-05-14T13:20:38;18.90;68.20
43808;DHT22;29438;50.664;10.098;2023-05-14T13:23:03;19.20;61.70
43808;DHT22;29438;50.664;10.098;2023-05-14T13:25:29;19.50;62.60
43808;DHT22;29438;50.664;10.098;2023-05-14T13:27:54;19.20;54.90
43808;DHT22;29438;50.664;10.098;2023-05-14T13:30:20;19.40;60.10
43808;DHT22;29438;50.664;10.098;2023-05-14T13:32:46;19.50;56.50
43808;DHT22;29438;50.664;10.098;2023-05-14T13:35:11;20.10;53.80
43808;DHT22;29438;50.664;10.098;2023-05-14T13:37:37;20.40;48.80
43808;DHT22;29438;50.664;10.098;2023-05-14T13:40:03;20.60;53.20
43808;DHT22;29438;50.664;10.098;2023-05-14T13:42:32;19.80;49.60
43808;DHT22;29438;50.664;10.098;2023-05-14T13:44:58;19.40;55.70
43808;DHT22;29438;50.664;10.098;2023-05-14T13:47:24;19.40;54.60
43808;DHT22;29438;50.664;10.098;2023-05-14T13:49:50;19.70;57.40
43808;DHT22;29438;50.664;10.098;2023-05-14T13:52:16;19.50;59.50
43808;DHT22;29438;50.664;10.098;2023-05-14T13:54:41;19.60;61.70
43808;DHT22;29438;50.664;10.098;2023-05-14T13:57:07;20.10;61.00
43808;DHT22;29438;50.664;10.098;2023-05-14T13:59:33;20.10;59.80
43808;DHT22;29438;50.664;10.098;2023-05-14T14:01:58;19.60;61.30
43808;DHT22;29438;50.664;10.098;2023-05-14T14:04:24;19.70;61.30
43808;DHT22;29438;50.664;10.098;2023-05-14T14:06:53;19.70;59.00
43808;DHT22;29438;50.664;10.098;2023-05-14T14:09:19;19.50;57.50
43808;DHT22;29438;50.664;10.098;2023-05-14T14:11:44;19.50;59.40
43808;DHT22;29438;50.664;10.098;2023-05-14T14:14:10;19.80;60.50
43808;DHT22;29438;50.664;10.098;2023-05-14T14:16:36;20.10;59.00
43808;DHT22;29438;50.664;10.098;2023-05-14T14:19:01;20.00;56.90
43808;DHT22;29438;50.664;10.098;2023-05-14T14:21:27;19.80;56.90
43808;DHT22;29438;50.664;10.098;2023-05-14T14:23:52;19.70;58.80
43808;DHT22;29438;50.664;10.098;2023-05-14T14:26:18;19.60;61.40
43808;DHT22;29438;50.664;10.098;2023-05-14T14:28:43;19.20;64.10
43808;DHT22;29438;50.664;10.098;2023-05-14T14:31:09;19.20;67.80
43808;DHT22;29438;50.664;10.098;2023-05-14T14:33:35;18.60;69.10
43808;DHT22;29438;50.664;10.098;2023-05-14T14:36:00;18.20;72.00
43808;DHT22;29438;50.664;10.098;2023-05-14T14:38:26;18.20;69.70
43808;DHT22;29438;50.664;10.098;2023-05-14T14:40:51;18.10;59.90
43808;DHT22;29438;50.664;10.098;2023-05-14T14:43:17;18.20;66.90
43808;DHT22;29438;50.664;10.098;2023-05-14T14:45:42;18.20;68.30
43808;DHT22;29438;50.664;10.098;2023-05-14T14:48:22;18.00;65.00
43808;DHT22;29438;50.664;10.098;2023-05-14T14:50:48;18.10;66.30
43808;DHT22;29438;50.664;10.098;2023-05-14T14:53:13;18.10;62.50
43808;DHT22;29438;50.664;10.098;2023-05-14T14:55:39;18.10;61.60
43808;DHT22;29438;50.664;10.098;2023-05-14T14:58:05;18.10;59.80
43808;DHT22;29438;50.664;10.098;2023-05-14T15:00:30;18.30;58.10
43808;DHT22;29438;50.664;10.098;2023-05-14T15:02:56;18.40;61.70
43808;DHT22;29438;50.664;10.098;2023-05-14T15:05:22;18.50;57.40
43808;DHT22;29438;50.664;10.098;2023-05-14T15:07:47;18.90;58.60
43808;DHT22;29438;50.664;10.098;2023-05-14T15:10:13;19.20;55.50
43808;DHT22;29438;50.664;10.098;2023-05-14T15:12:38;19.30;54.90
43808;DHT22;29438;50.664;10.098;2023-05-14T15:15:04;19.10;54.70
43808;DHT22;29438;50.664;10.098;2023-05-14T15:17:31;19.10;57.90
43808;DHT22;29438;50.664;10.098;2023-05-14T15:19:56;18.40;56.50
43808;DHT22;29438;50.664;10.098;2023-05-14T15:22:22;18.20;57.30